sensor_id;sensor_type;location;lat;lon;timestamp;pressure;altitude;pressure_sealevel;temperature;humidity
71778;BME280;59609;52.430;4.668;2023-04-05T00:00:46;102597.88;;;3.61;92.58
71778;BME280;59609;52.430;4.668;2023-04-05T00:03:12;102594.19;;;3.62;92.71
71778;BME280;59609;52.430;4.668;2023-04-05T00:05:40;102591.53;;;3.61;93.19
71778;BME280;59609;52.430;4.668;2023-04-05T00:08:05;102598.09;;;3.57;93.21
71778;BME280;59609;52.430;4.668;2023-04-05T00:10:37;102592.97;;;3.51;93.62
71778;BME280;59609;52.430;4.668;2023-04-05T00:13:03;102592.19;;;3.49;93.30
71778;BME280;59609;52.430;4.668;2023-04-05T00:15:29;102595.97;;;3.46;93.49
71778;BME280;59609;52.430;4.668;2023-04-05T00:17:56;102587.78;;;3.46;93.76
71778;BME280;59609;52.430;4.668;2023-04-05T00:20:25;102583.22;;;3.47;94.22
71778;BME280;59609;52.430;4.668;2023-04-05T00:22:50;102582.34;;;3.46;93.85
71778;BME280;59609;52.430;4.668;2023-04-05T00:25:16;102579.69;;;3.45;93.48
71778;BME280;59609;52.430;4.668;2023-04-05T00:27:42;102584.22;;;3.44;94.46
71778;BME280;59609;52.430;4.668;2023-04-05T00:30:08;102568.22;;;3.38;94.33
71778;BME280;59609;52.430;4.668;2023-04-05T00:32:34;102573.59;;;3.40;94.73
71778;BME280;59609;52.430;4.668;2023-04-05T00:34:59;102575.50;;;3.38;95.35
71778;BME280;59609;52.430;4.668;2023-04-05T00:37:25;102570.16;;;3.36;94.99
71778;BME280;59609;52.430;4.668;2023-04-05T00:39:50;102566.75;;;3.31;95.25
71778;BME280;59609;52.430;4.668;2023-04-05T00:42:18;102566.75;;;3.31;95.24
71778;BME280;59609;52.430;4.668;2023-04-05T00:44:43;102558.84;;;3.27;95.29
71778;BME280;59609;52.430;4.668;2023-04-05T00:47:08;102557.06;;;3.26;95.65
71778;BME280;59609;52.430;4.668;2023-04-05T00:49:35;102561.63;;;3.25;95.27
71778;BME280;59609;52.430;4.668;2023-04-05T00:52:01;102557.13;;;3.24;95.24
71778;BME280;59609;52.430;4.668;2023-04-05T00:54:27;102559.22;;;3.19;95.90
71778;BME280;59609;52.430;4.668;2023-04-05T00:56:57;102563.00;;;3.17;96.44
71778;BME280;59609;52.430;4.668;2023-04-05T00:59:24;102552.94;;;3.17;96.57
71778;BME280;59609;52.430;4.668;2023-04-05T01:01:57;102549.53;;;3.14;96.36
71778;BME280;59609;52.430;4.668;2023-04-05T01:04:24;102548.66;;;3.13;97.90
71778;BME280;59609;52.430;4.668;2023-04-05T01:07:16;102556.31;;;3.05;96.94
71778;BME280;59609;52.430;4.668;2023-04-05T01:09:58;102541.22;;;2.98;97.50
71778;BME280;59609;52.430;4.668;2023-04-05T01:12:27;102540.59;;;2.93;97.64
71778;BME280;59609;52.430;4.668;2023-04-05T01:14:54;102538.75;;;2.93;97.37
71778;BME280;59609;52.430;4.668;2023-04-05T01:17:23;102535.94;;;2.95;98.21
71778;BME280;59609;52.430;4.668;2023-04-05T01:19:59;102537.72;;;2.96;98.78
71778;BME280;59609;52.430;4.668;2023-04-05T01:28:00;102530.25;;;2.82;98.75
71778;BME280;59609;52.430;4.668;2023-04-05T01:30:36;102531.28;;;2.80;98.78
71778;BME280;59609;52.430;4.668;2023-04-05T01:33:29;102530.25;;;2.82;99.26
71778;BME280;59609;52.430;4.668;2023-04-05T01:36:05;102526.78;;;2.79;99.79
71778;BME280;59609;52.430;4.668;2023-04-05T01:38:32;102524.22;;;2.76;100.00
71778;BME280;59609;52.430;4.668;2023-04-05T01:41:02;102524.28;;;2.74;99.99
71778;BME280;59609;52.430;4.668;2023-04-05T01:43:27;102519.88;;;2.72;100.00
71778;BME280;59609;52.430;4.668;2023-04-05T01:45:52;102521.81;;;2.70;100.00
71778;BME280;59609;52.430;4.668;2023-04-05T01:48:18;102497.09;;;2.55;100.00
71778;BME280;59609;52.430;4.668;2023-04-05T01:50:43;102512.31;;;2.59;100.00
71778;BME280;59609;52.430;4.668;2023-04-05T01:53:09;102510.63;;;2.57;100.00
71778;BME280;59609;52.430;4.668;2023-04-05T01:55:34;102508.78;;;2.57;100.00
71778;BME280;59609;52.430;4.668;2023-04-05T01:58:00;102507.03;;;2.56;100.00
71778;BME280;59609;52.430;4.668;2023-04-05T02:00:25;102501.59;;;2.56;100.00
71778;BME280;59609;52.430;4.668;2023-04-05T02:02:52;102502.41;;;2.58;100.00
71778;BME280;59609;52.430;4.668;2023-04-05T02:05:17;102496.22;;;2.55;100.00
71778;BME280;59609;52.430;4.668;2023-04-05T02:07:42;102486.59;;;2.48;100.00
71778;BME280;59609;52.430;4.668;2023-04-05T02:10:08;102491.97;;;2.49;100.00
71778;BME280;59609;52.430;4.668;2023-04-05T02:12:33;102480.41;;;2.44;100.00
71778;BME280;59609;52.430;4.668;2023-04-05T02:14:59;102480.72;;;2.38;100.00
71778;BME280;59609;52.430;4.668;2023-04-05T02:17:25;102472.72;;;2.35;100.00
71778;BME280;59609;52.430;4.668;2023-04-05T02:20:04;102472.78;;;2.34;100.00
71778;BME280;59609;52.430;4.668;2023-04-05T02:22:31;102470.16;;;2.32;100.00
71778;BME280;59609;52.430;4.668;2023-04-05T02:24:56;102469.31;;;2.30;100.00
71778;BME280;59609;52.430;4.668;2023-04-05T02:27:21;102464.13;;;2.26;100.00
71778;BME280;59609;52.430;4.668;2023-04-05T02:29:47;102466.03;;;2.24;100.00
71778;BME280;59609;52.430;4.668;2023-04-05T02:32:12;102461.56;;;2.23;100.00
71778;BME280;59609;52.430;4.668;2023-04-05T02:34:37;102454.28;;;2.23;100.00
71778;BME280;59609;52.430;4.668;2023-04-05T02:37:05;102459.44;;;2.29;100.00
71778;BME280;59609;52.430;4.668;2023-04-05T02:39:31;102458.44;;;2.30;100.00
71778;BME280;59609;52.430;4.668;2023-04-05T02:41:56;102457.50;;;2.31;100.00
71778;BME280;59609;52.430;4.668;2023-04-05T02:44:23;102463.75;;;2.33;100.00
71778;BME280;59609;52.430;4.668;2023-04-05T02:46:48;102465.50;;;2.34;100.00
71778;BME280;59609;52.430;4.668;2023-04-05T02:49:14;102457.28;;;2.36;100.00
71778;BME280;59609;52.430;4.668;2023-04-05T02:51:39;102456.34;;;2.37;100.00
71778;BME280;59609;52.430;4.668;2023-04-05T02:54:05;102462.63;;;2.37;100.00
71778;BME280;59609;52.430;4.668;2023-04-05T02:56:30;102463.63;;;2.36;100.00
71778;BME280;59609;52.430;4.668;2023-04-05T02:58:56;102450.16;;;2.33;100.00
71778;BME280;59609;52.430;4.668;2023-04-05T03:01:22;102447.28;;;2.36;100.00
71778;BME280;59609;52.430;4.668;2023-04-05T03:03:48;102442.28;;;2.27;100.00
71778;BME280;59609;52.430;4.668;2023-04-05T03:06:13;102457.66;;;2.28;100.00
71778;BME280;59609;52.430;4.668;2023-04-05T03:08:40;102455.03;;;2.27;100.00
71778;BME280;59609;52.430;4.668;2023-04-05T03:11:10;102451.78;;;2.19;100.00
71778;BME280;59609;52.430;4.668;2023-04-05T03:13:36;102450.31;;;2.12;100.00
71778;BME280;59609;52.430;4.668;2023-04-05T03:16:02;102452.28;;;2.08;100.00
71778;BME280;59609;52.430;4.668;2023-04-05T03:18:27;102446.06;;;2.06;100.00
71778;BME280;59609;52.430;4.668;2023-04-05T03:20:54;102449.66;;;2.06;100.00
71778;BME280;59609;52.430;4.668;2023-04-05T03:23:27;102440.63;;;2.06;100.00
71778;BME280;59609;52.430;4.668;2023-04-05T03:26:03;102440.63;;;2.06;100.00
71778;BME280;59609;52.430;4.668;2023-04-05T03:28:29;102434.34;;;2.04;100.00
71778;BME280;59609;52.430;4.668;2023-04-05T03:30:57;102436.13;;;2.05;100.00
71778;BME280;59609;52.430;4.668;2023-04-05T03:33:22;102432.53;;;2.04;100.00
71778;BME280;59609;52.430;4.668;2023-04-05T03:35:47;102428.19;;;2.00;100.00
71778;BME280;59609;52.430;4.668;2023-04-05T03:38:13;102432.03;;;1.96;100.00
71778;BME280;59609;52.430;4.668;2023-04-05T03:40:39;102426.66;;;1.95;100.00
71778;BME280;59609;52.430;4.668;2023-04-05T03:43:04;102428.56;;;1.93;100.00
71778;BME280;59609;52.430;4.668;2023-04-05T03:45:29;102423.56;;;1.84;100.00
71778;BME280;59609;52.430;4.668;2023-04-05T03:47:56;102434.28;;;1.87;100.00
71778;BME280;59609;52.430;4.668;2023-04-05T03:50:22;102421.72;;;1.84;100.00
71778;BME280;59609;52.430;4.668;2023-04-05T03:52:47;102423.41;;;1.87;100.00
71778;BME280;59609;52.430;4.668;2023-04-05T03:55:13;102422.41;;;1.89;100.00
71778;BME280;59609;52.430;4.668;2023-04-05T03:57:41;102426.06;;;1.88;100.00
71778;BME280;59609;52.430;4.668;2023-04-05T04:00:07;102429.88;;;1.84;100.00
71778;BME280;59609;52.430;4.668;2023-04-05T04:02:48;102432.53;;;1.86;100.00
71778;BME280;59609;52.430;4.668;2023-04-05T04:05:15;102426.28;;;1.84;100.00
71778;BME280;59609;52.430;4.668;2023-04-05T04:07:42;102414.75;;;1.79;100.00
71778;BME280;59609;52.430;4.668;2023-04-05T04:10:10;102419.09;;;1.83;100.00
71778;BME280;59609;52.430;4.668;2023-04-05T04:12:36;102426.66;;;1.76;100.00
71778;BME280;59609;52.430;4.668;2023-04-05T04:15:02;102425.03;;;1.72;100.00
71778;BME280;59609;52.430;4.668;2023-04-05T04:17:29;102423.34;;;1.70;100.00
71778;BME280;59609;52.430;4.668;2023-04-05T04:19:55;102418.06;;;1.67;100.00
71778;BME280;59609;52.430;4.668;2023-04-05T04:22:21;102419.00;;;1.66;100.00
71778;BME280;59609;52.430;4.668;2023-04-05T04:24:46;102424.44;;;1.66;100.00
71778;BME280;59609;52.430;4.668;2023-04-05T04:27:15;102423.56;;;1.65;100.00
71778;BME280;59609;52.430;4.668;2023-04-05T04:29:41;102413.88;;;1.60;100.00
71778;BME280;59609;52.430;4.668;2023-04-05T04:32:12;102410.31;;;1.58;100.00
71778;BME280;59609;52.430;4.668;2023-04-05T04:34:37;102417.56;;;1.57;100.00
71778;BME280;59609;52.430;4.668;2023-04-05T04:37:15;102418.69;;;1.53;100.00
71778;BME280;59609;52.430;4.668;2023-04-05T04:39:47;102416.03;;;1.51;100.00
71778;BME280;59609;52.430;4.668;2023-04-05T04:42:14;102405.38;;;1.47;100.00
71778;BME280;59609;52.430;4.668;2023-04-05T04:44:44;102415.38;;;1.46;100.00
71778;BME280;59609;52.430;4.668;2023-04-05T04:47:10;102420.66;;;1.49;100.00
71778;BME280;59609;52.430;4.668;2023-04-05T04:49:37;102409.25;;;1.41;100.00
71778;BME280;59609;52.430;4.668;2023-04-05T04:52:04;102409.13;;;1.44;100.00
71778;BME280;59609;52.430;4.668;2023-04-05T04:54:30;102405.00;;;1.36;100.00
71778;BME280;59609;52.430;4.668;2023-04-05T04:56:58;102418.34;;;1.40;100.00
71778;BME280;59609;52.430;4.668;2023-04-05T04:59:24;102414.84;;;1.38;100.00
71778;BME280;59609;52.430;4.668;2023-04-05T05:01:49;102413.94;;;1.38;100.00
71778;BME280;59609;52.430;4.668;2023-04-05T05:04:15;102418.34;;;1.40;100.00
71778;BME280;59609;52.430;4.668;2023-04-05T05:06:40;102414.69;;;1.41;100.00
71778;BME280;59609;52.430;4.668;2023-04-05T05:09:05;102412.06;;;1.40;100.00
71778;BME280;59609;52.430;4.668;2023-04-05T05:11:31;102413.00;;;1.39;100.00
71778;BME280;59609;52.430;4.668;2023-04-05T05:13:56;102414.09;;;1.35;100.00
71778;BME280;59609;52.430;4.668;2023-04-05T05:16:22;102414.09;;;1.35;100.00
71778;BME280;59609;52.430;4.668;2023-04-05T05:18:49;102415.78;;;1.37;100.00
71778;BME280;59609;52.430;4.668;2023-04-05T05:21:15;102416.31;;;1.45;100.00
71778;BME280;59609;52.430;4.668;2023-04-05T05:23:40;102428.31;;;1.60;100.00
71778;BME280;59609;52.430;4.668;2023-04-05T05:26:06;102428.69;;;1.71;100.00
71778;BME280;59609;52.430;4.668;2023-04-05T05:28:31;102418.66;;;1.73;100.00
71778;BME280;59609;52.430;4.668;2023-04-05T05:30:57;102423.28;;;1.90;100.00
71778;BME280;59609;52.430;4.668;2023-04-05T05:33:22;102429.75;;;2.06;100.00
71778;BME280;59609;52.430;4.668;2023-04-05T05:35:49;102418.56;;;2.12;100.00
71778;BME280;59609;52.430;4.668;2023-04-05T05:38:16;102421.09;;;2.17;100.00
71778;BME280;59609;52.430;4.668;2023-04-05T05:40:41;102431.56;;;2.24;100.00
71778;BME280;59609;52.430;4.668;2023-04-05T05:43:07;102428.31;;;2.35;100.00
71778;BME280;59609;52.430;4.668;2023-04-05T05:45:33;102423.56;;;2.40;100.00
71778;BME280;59609;52.430;4.668;2023-04-05T05:47:58;102429.09;;;2.55;100.00
71778;BME280;59609;52.430;4.668;2023-04-05T05:50:23;102422.97;;;2.69;100.00
71778;BME280;59609;52.430;4.668;2023-04-05T05:52:49;102421.44;;;2.81;100.00
71778;BME280;59609;52.430;4.668;2023-04-05T05:55:15;102427.22;;;2.92;100.00
71778;BME280;59609;52.430;4.668;2023-04-05T05:57:40;102429.31;;;3.04;100.00
71778;BME280;59609;52.430;4.668;2023-04-05T06:00:06;102425.28;;;3.11;100.00
71778;BME280;59609;52.430;4.668;2023-04-05T06:02:35;102419.13;;;3.25;100.00
71778;BME280;59609;52.430;4.668;2023-04-05T06:05:00;102418.31;;;3.40;100.00
71778;BME280;59609;52.430;4.668;2023-04-05T06:07:29;102418.19;;;3.58;100.00
71778;BME280;59609;52.430;4.668;2023-04-05T06:09:54;102413.06;;;3.70;100.00
71778;BME280;59609;52.430;4.668;2023-04-05T06:12:20;102423.91;;;3.87;100.00
71778;BME280;59609;52.430;4.668;2023-04-05T06:14:46;102413.44;;;3.95;99.42
71778;BME280;59609;52.430;4.668;2023-04-05T06:17:11;102413.00;;;4.02;97.83
71778;BME280;59609;52.430;4.668;2023-04-05T06:19:36;102416.44;;;4.22;96.66
71778;BME280;59609;52.430;4.668;2023-04-05T06:22:02;102426.38;;;4.38;95.64
71778;BME280;59609;52.430;4.668;2023-04-05T06:24:27;102416.09;;;4.43;94.68
71778;BME280;59609;52.430;4.668;2023-04-05T06:26:59;102407.97;;;4.57;93.04
71778;BME280;59609;52.430;4.668;2023-04-05T06:29:25;102414.31;;;4.74;92.95
71778;BME280;59609;52.430;4.668;2023-04-05T06:31:51;102416.84;;;4.61;90.96
71778;BME280;59609;52.430;4.668;2023-04-05T06:34:16;102409.81;;;4.73;90.16
71778;BME280;59609;52.430;4.668;2023-04-05T06:36:42;102410.47;;;4.92;89.18
71778;BME280;59609;52.430;4.668;2023-04-05T06:39:07;102402.00;;;4.96;87.85
71778;BME280;59609;52.430;4.668;2023-04-05T06:41:33;102413.09;;;5.23;86.17
71778;BME280;59609;52.430;4.668;2023-04-05T06:43:58;102415.63;;;5.26;84.15
71778;BME280;59609;52.430;4.668;2023-04-05T06:46:24;102414.75;;;5.26;84.10
71778;BME280;59609;52.430;4.668;2023-04-05T06:48:51;102409.22;;;5.41;82.41
71778;BME280;59609;52.430;4.668;2023-04-05T06:51:17;102419.75;;;5.47;81.35
71778;BME280;59609;52.430;4.668;2023-04-05T06:53:42;102419.84;;;5.32;80.19
71778;BME280;59609;52.430;4.668;2023-04-05T06:56:08;102410.56;;;5.34;78.19
71778;BME280;59609;52.430;4.668;2023-04-05T06:58:33;102414.19;;;5.49;77.05
71778;BME280;59609;52.430;4.668;2023-04-05T07:01:00;102410.88;;;5.58;76.54
71778;BME280;59609;52.430;4.668;2023-04-05T07:03:25;102402.78;;;5.56;75.42
71778;BME280;59609;52.430;4.668;2023-04-05T07:05:57;102405.75;;;5.96;75.46
71778;BME280;59609;52.430;4.668;2023-04-05T07:08:23;102410.25;;;5.97;74.13
71778;BME280;59609;52.430;4.668;2023-04-05T07:10:50;102411.19;;;5.82;73.64
71778;BME280;59609;52.430;4.668;2023-04-05T07:13:16;102406.75;;;6.36;74.21
71778;BME280;59609;52.430;4.668;2023-04-05T07:15:43;102393.22;;;6.20;73.80
71778;BME280;59609;52.430;4.668;2023-04-05T07:18:08;102405.66;;;6.38;73.86
71778;BME280;59609;52.430;4.668;2023-04-05T07:20:34;102406.06;;;6.46;72.28
71778;BME280;59609;52.430;4.668;2023-04-05T07:22:59;102395.69;;;6.64;72.12
71778;BME280;59609;52.430;4.668;2023-04-05T07:25:25;102405.38;;;6.43;72.47
71778;BME280;59609;52.430;4.668;2023-04-05T07:27:50;102399.66;;;6.99;72.28
71778;BME280;59609;52.430;4.668;2023-04-05T07:30:17;102404.25;;;6.99;70.84
71778;BME280;59609;52.430;4.668;2023-04-05T07:32:42;102404.63;;;7.07;71.04
71778;BME280;59609;52.430;4.668;2023-04-05T07:35:08;102395.47;;;7.33;69.86
71778;BME280;59609;52.430;4.668;2023-04-05T07:37:33;102400.63;;;6.86;70.35
71778;BME280;59609;52.430;4.668;2023-04-05T07:39:58;102400.63;;;6.86;70.41
71778;BME280;59609;52.430;4.668;2023-04-05T07:42:24;102397.72;;;7.14;69.91
71778;BME280;59609;52.430;4.668;2023-04-05T07:44:50;102404.03;;;6.89;68.79
71778;BME280;59609;52.430;4.668;2023-04-05T07:47:15;102400.34;;;7.03;69.24
71778;BME280;59609;52.430;4.668;2023-04-05T07:49:41;102393.53;;;7.08;69.34
71778;BME280;59609;52.430;4.668;2023-04-05T07:52:06;102387.22;;;7.84;68.24
71778;BME280;59609;52.430;4.668;2023-04-05T07:54:32;102384.44;;;8.09;67.18
71778;BME280;59609;52.430;4.668;2023-04-05T07:57:03;102387.63;;;8.03;66.23
71778;BME280;59609;52.430;4.668;2023-04-05T07:59:29;102383.44;;;8.10;65.31
71778;BME280;59609;52.430;4.668;2023-04-05T08:01:55;102376.94;;;7.49;66.35
71778;BME280;59609;52.430;4.668;2023-04-05T08:04:20;102378.13;;;7.83;65.71
71778;BME280;59609;52.430;4.668;2023-04-05T08:06:46;102380.94;;;8.07;63.32
71778;BME280;59609;52.430;4.668;2023-04-05T08:09:12;102382.25;;;8.01;62.95
71778;BME280;59609;52.430;4.668;2023-04-05T08:11:37;102387.66;;;7.77;62.74
71778;BME280;59609;52.430;4.668;2023-04-05T08:14:03;102386.63;;;8.16;64.77
71778;BME280;59609;52.430;4.668;2023-04-05T08:16:28;102383.22;;;8.13;63.59
71778;BME280;59609;52.430;4.668;2023-04-05T08:18:54;102380.13;;;8.17;63.95
71778;BME280;59609;52.430;4.668;2023-04-05T08:21:20;102384.69;;;8.42;60.75
71778;BME280;59609;52.430;4.668;2023-04-05T08:23:46;102377.16;;;8.33;58.94
71778;BME280;59609;52.430;4.668;2023-04-05T08:26:11;102376.47;;;9.01;59.20
71778;BME280;59609;52.430;4.668;2023-04-05T08:28:36;102375.34;;;8.68;61.08
71778;BME280;59609;52.430;4.668;2023-04-05T08:31:02;102376.97;;;9.29;60.73
71778;BME280;59609;52.430;4.668;2023-04-05T08:33:27;102377.53;;;8.76;59.51
71778;BME280;59609;52.430;4.668;2023-04-05T08:35:55;102369.34;;;8.98;60.50
71778;BME280;59609;52.430;4.668;2023-04-05T08:38:21;102374.28;;;9.63;57.53
71778;BME280;59609;52.430;4.668;2023-04-05T08:40:47;102373.91;;;9.78;57.49
71778;BME280;59609;52.430;4.668;2023-04-05T08:45:52;102373.16;;;9.99;55.82
71778;BME280;59609;52.430;4.668;2023-04-05T08:48:18;102365.63;;;9.67;54.95
71778;BME280;59609;52.430;4.668;2023-04-05T08:50:53;102366.03;;;9.96;54.97
71778;BME280;59609;52.430;4.668;2023-04-05T08:53:19;102368.50;;;9.55;51.48
71778;BME280;59609;52.430;4.668;2023-04-05T08:55:48;102373.50;;;9.50;52.54
71778;BME280;59609;52.430;4.668;2023-04-05T08:58:19;102375.66;;;9.79;51.29
71778;BME280;59609;52.430;4.668;2023-04-05T09:00:49;102371.91;;;9.92;52.22
71778;BME280;59609;52.430;4.668;2023-04-05T09:03:24;102371.16;;;10.12;50.84
71778;BME280;59609;52.430;4.668;2023-04-05T09:05:51;102373.78;;;10.24;50.01
71778;BME280;59609;52.430;4.668;2023-04-05T09:08:17;102364.91;;;10.32;51.34
71778;BME280;59609;52.430;4.668;2023-04-05T09:10:43;102363.09;;;10.53;50.08
71778;BME280;59609;52.430;4.668;2023-04-05T09:13:09;102359.16;;;10.99;48.30
71778;BME280;59609;52.430;4.668;2023-04-05T09:15:39;102353.47;;;11.32;48.85
71778;BME280;59609;52.430;4.668;2023-04-05T09:18:05;102366.53;;;11.30;47.38
71778;BME280;59609;52.430;4.668;2023-04-05T09:20:31;102351.38;;;11.24;46.13
71778;BME280;59609;52.430;4.668;2023-04-05T09:22:56;102355.06;;;10.93;43.37
71778;BME280;59609;52.430;4.668;2023-04-05T09:27:56;102358.03;;;11.22;42.14
71778;BME280;59609;52.430;4.668;2023-04-05T09:30:23;102344.81;;;11.67;41.60
71778;BME280;59609;52.430;4.668;2023-04-05T09:32:51;102346.97;;;11.63;40.06
71778;BME280;59609;52.430;4.668;2023-04-05T09:35:20;102353.00;;;11.27;40.61
71778;BME280;59609;52.430;4.668;2023-04-05T09:37:55;102343.94;;;11.66;38.91
71778;BME280;59609;52.430;4.668;2023-04-05T09:40:21;102347.94;;;11.73;39.19
71778;BME280;59609;52.430;4.668;2023-04-05T09:42:48;102346.31;;;12.01;39.31
71778;BME280;59609;52.430;4.668;2023-04-05T09:45:14;102340.47;;;11.95;41.26
71778;BME280;59609;52.430;4.668;2023-04-05T09:47:39;102346.25;;;11.92;42.57
71778;BME280;59609;52.430;4.668;2023-04-05T09:50:26;102344.69;;;11.99;43.06
71778;BME280;59609;52.430;4.668;2023-04-05T09:53:04;102339.25;;;11.87;42.06
71778;BME280;59609;52.430;4.668;2023-04-05T09:55:31;102338.81;;;12.22;40.58
71778;BME280;59609;52.430;4.668;2023-04-05T09:57:57;102332.56;;;12.20;40.98
71778;BME280;59609;52.430;4.668;2023-04-05T10:00:22;102342.69;;;12.50;40.60
71778;BME280;59609;52.430;4.668;2023-04-05T10:02:52;102328.88;;;12.69;38.57
71778;BME280;59609;52.430;4.668;2023-04-05T10:05:17;102331.22;;;12.74;39.34
71778;BME280;59609;52.430;4.668;2023-04-05T10:07:44;102331.53;;;11.81;39.75
71778;BME280;59609;52.430;4.668;2023-04-05T10:10:12;102328.94;;;11.59;39.76
71778;BME280;59609;52.430;4.668;2023-04-05T10:12:40;102327.56;;;11.74;39.69
71778;BME280;59609;52.430;4.668;2023-04-05T10:15:07;102324.72;;;11.85;39.40
71778;BME280;59609;52.430;4.668;2023-04-05T10:17:51;102315.03;;;12.60;38.84
71778;BME280;59609;52.430;4.668;2023-04-05T10:20:20;102310.69;;;12.76;38.74
71778;BME280;59609;52.430;4.668;2023-04-05T10:28:33;102309.34;;;12.42;36.53
71778;BME280;59609;52.430;4.668;2023-04-05T10:31:24;102306.16;;;13.33;37.56
71778;BME280;59609;52.430;4.668;2023-04-05T10:34:05;102306.00;;;13.25;36.54
71778;BME280;59609;52.430;4.668;2023-04-05T10:36:56;102314.16;;;12.40;38.38
71778;BME280;59609;52.430;4.668;2023-04-05T10:44:33;102308.91;;;12.95;37.97
71778;BME280;59609;52.430;4.668;2023-04-05T10:47:01;102292.47;;;12.64;36.20
71778;BME280;59609;52.430;4.668;2023-04-05T10:49:48;102299.94;;;13.58;36.94
71778;BME280;59609;52.430;4.668;2023-04-05T10:52:16;102302.50;;;13.79;36.50
71778;BME280;59609;52.430;4.668;2023-04-05T10:54:42;102304.25;;;13.05;37.07
71778;BME280;59609;52.430;4.668;2023-04-05T10:57:08;102300.19;;;12.89;38.39
71778;BME280;59609;52.430;4.668;2023-04-05T10:59:40;102290.84;;;13.29;37.56
71778;BME280;59609;52.430;4.668;2023-04-05T11:02:07;102298.56;;;13.35;37.28
71778;BME280;59609;52.430;4.668;2023-04-05T11:04:33;102292.63;;;13.20;37.22
71778;BME280;59609;52.430;4.668;2023-04-05T11:07:18;102294.81;;;13.73;36.64
71778;BME280;59609;52.430;4.668;2023-04-05T11:10:15;102285.88;;;13.79;35.26
71778;BME280;59609;52.430;4.668;2023-04-05T11:18:20;102281.97;;;13.72;34.87
71778;BME280;59609;52.430;4.668;2023-04-05T11:20:51;102284.78;;;13.62;35.41
71778;BME280;59609;52.430;4.668;2023-04-05T11:23:19;102286.03;;;13.77;36.20
71778;BME280;59609;52.430;4.668;2023-04-05T11:25:47;102271.56;;;13.83;35.47
71778;BME280;59609;52.430;4.668;2023-04-05T11:28:33;102270.69;;;13.46;35.09
71778;BME280;59609;52.430;4.668;2023-04-05T11:31:18;102279.66;;;13.67;35.77
71778;BME280;59609;52.430;4.668;2023-04-05T11:36:09;102269.41;;;13.40;36.15
71778;BME280;59609;52.430;4.668;2023-04-05T11:38:35;102260.00;;;13.88;35.02
71778;BME280;59609;52.430;4.668;2023-04-05T11:43:32;102262.53;;;13.54;36.23
71778;BME280;59609;52.430;4.668;2023-04-05T11:46:01;102270.63;;;13.65;35.87
71778;BME280;59609;52.430;4.668;2023-04-05T11:48:28;102256.06;;;13.17;36.67
71778;BME280;59609;52.430;4.668;2023-04-05T11:50:53;102252.78;;;14.05;36.28
71778;BME280;59609;52.430;4.668;2023-04-05T11:53:20;102246.63;;;14.11;35.60
71778;BME280;59609;52.430;4.668;2023-04-05T11:55:48;102249.72;;;14.25;33.83
71778;BME280;59609;52.430;4.668;2023-04-05T12:01:01;102232.78;;;13.83;34.71
71778;BME280;59609;52.430;4.668;2023-04-05T12:03:28;102243.00;;;14.10;33.88
71778;BME280;59609;52.430;4.668;2023-04-05T12:05:55;102239.28;;;13.92;33.72
71778;BME280;59609;52.430;4.668;2023-04-05T12:08:21;102237.03;;;13.78;34.96
71778;BME280;59609;52.430;4.668;2023-04-05T12:10:57;102233.19;;;13.88;35.45
71778;BME280;59609;52.430;4.668;2023-04-05T12:13:29;102225.41;;;14.19;33.78
71778;BME280;59609;52.430;4.668;2023-04-05T12:16:00;102229.88;;;13.48;34.25
71778;BME280;59609;52.430;4.668;2023-04-05T12:18:29;102224.78;;;14.25;34.34
71778;BME280;59609;52.430;4.668;2023-04-05T12:20:55;102220.84;;;13.83;34.19
71778;BME280;59609;52.430;4.668;2023-04-05T12:23:21;102225.69;;;14.43;34.31
71778;BME280;59609;52.430;4.668;2023-04-05T12:25:52;102226.34;;;14.10;33.83
71778;BME280;59609;52.430;4.668;2023-04-05T12:28:17;102219.38;;;14.33;33.76
71778;BME280;59609;52.430;4.668;2023-04-05T12:30:53;102217.19;;;14.27;33.22
71778;BME280;59609;52.430;4.668;2023-04-05T12:33:26;102211.00;;;14.69;33.39
71778;BME280;59609;52.430;4.668;2023-04-05T12:35:55;102206.22;;;14.53;34.04
71778;BME280;59609;52.430;4.668;2023-04-05T12:38:25;102201.25;;;14.12;33.46
71778;BME280;59609;52.430;4.668;2023-04-05T12:40:53;102204.88;;;14.57;32.99
71778;BME280;59609;52.430;4.668;2023-04-05T12:43:23;102199.44;;;14.91;32.38
71778;BME280;59609;52.430;4.668;2023-04-05T12:45:48;102189.91;;;14.93;32.89
71778;BME280;59609;52.430;4.668;2023-04-05T12:48:22;102203.16;;;15.33;32.22
71778;BME280;59609;52.430;4.668;2023-04-05T12:50:50;102196.22;;;14.60;32.39
71778;BME280;59609;52.430;4.668;2023-04-05T12:53:23;102184.13;;;15.13;32.60
71778;BME280;59609;52.430;4.668;2023-04-05T12:55:54;102188.88;;;15.20;32.16
71778;BME280;59609;52.430;4.668;2023-04-05T12:58:20;102193.53;;;14.94;31.76
71778;BME280;59609;52.430;4.668;2023-04-05T13:00:46;102196.69;;;14.56;33.45
71778;BME280;59609;52.430;4.668;2023-04-05T13:03:18;102189.66;;;13.81;34.20
71778;BME280;59609;52.430;4.668;2023-04-05T13:05:45;102180.19;;;14.72;33.27
71778;BME280;59609;52.430;4.668;2023-04-05T13:08:12;102177.38;;;14.46;33.97
71778;BME280;59609;52.430;4.668;2023-04-05T13:10:38;102181.44;;;15.29;32.78
71778;BME280;59609;52.430;4.668;2023-04-05T13:13:03;102164.63;;;15.05;33.65
71778;BME280;59609;52.430;4.668;2023-04-05T13:15:29;102170.34;;;15.29;31.76
71778;BME280;59609;52.430;4.668;2023-04-05T13:17:54;102167.94;;;15.08;33.07
71778;BME280;59609;52.430;4.668;2023-04-05T13:20:20;102159.88;;;15.23;31.52
71778;BME280;59609;52.430;4.668;2023-04-05T13:22:46;102165.56;;;14.44;33.35
71778;BME280;59609;52.430;4.668;2023-04-05T13:25:12;102149.84;;;14.70;33.22
71778;BME280;59609;52.430;4.668;2023-04-05T13:27:38;102160.31;;;14.23;33.61
71778;BME280;59609;52.430;4.668;2023-04-05T13:30:04;102157.84;;;14.73;32.31